Time;durP1;ratioP1;P1;durP2;ratioP2;P2;SDS_P1;SDS_P2;PMS_P1;PMS_P2;Temp;Humidity;BMP_temperature;BMP_pressure;BME280_temperature;BME280_humidity;BME280_pressure;Samples;Min_cycle;Max_cycle;Signal;HPM_P1;HPM_P2
2023/11/30 00:01:29;;;;;;;4.45;3.35;;;;;;;;;;10355483;28;20054;-73
2023/11/30 00:06:39;;;;;;;4.07;3.10;;;;;;;;;;10350553;28;20050;-73
2023/11/30 00:11:42;;;;;;;4.82;3.40;;;;;;;;;;10370640;28;20455;-73
2023/11/30 00:16:45;;;;;;;4.75;2.78;;;;;;;;;;10347580;28;20054;-73
2023/11/30 00:21:50;;;;;;;3.65;2.80;;;;;;;;;;10340819;28;20046;-73
2023/11/30 00:26:53;;;;;;;3.13;2.40;;;;;;;;;;10367858;28;20071;-73
2023/11/30 00:31:56;;;;;;;4.90;2.55;;;;;;;;;;10341709;28;20104;-73
2023/11/30 00:37:01;;;;;;;2.30;2.10;;;;;;;;;;10361877;28;20057;-73
2023/11/30 00:42:04;;;;;;;2.00;1.80;;;;;;;;;;10401477;28;20040;-73
2023/11/30 00:47:07;;;;;;;1.80;1.67;;;;;;;;;;10369318;28;20060;-73
2023/11/30 00:52:12;;;;;;;3.00;2.03;;;;;;;;;;10372810;28;20482;-73
2023/11/30 00:57:15;;;;;;;3.85;2.30;;;;;;;;;;10402416;28;20137;-73
2023/11/30 01:02:19;;;;;;;2.75;2.15;;;;;;;;;;10395092;28;20056;-73
2023/11/30 01:07:23;;;;;;;2.88;2.00;;;;;;;;;;10364529;28;20057;-73
2023/11/30 01:12:27;;;;;;;3.00;2.40;;;;;;;;;;10356672;28;20514;-73
2023/11/30 01:17:30;;;;;;;2.20;2.00;;;;;;;;;;10397287;28;20135;-73
2023/11/30 01:22:35;;;;;;;2.30;1.88;;;;;;;;;;10389624;28;20080;-73
2023/11/30 01:27:38;;;;;;;2.38;1.80;;;;;;;;;;10355988;28;20042;-73
2023/11/30 01:32:41;;;;;;;1.88;1.75;;;;;;;;;;10362713;28;20042;-73
2023/11/30 01:37:46;;;;;;;2.42;1.90;;;;;;;;;;10359535;28;20053;-73
2023/11/30 01:42:49;;;;;;;2.15;1.95;;;;;;;;;;10374957;28;20057;-73
2023/11/30 01:47:53;;;;;;;3.10;2.63;;;;;;;;;;10384745;28;20055;-73
2023/11/30 01:52:58;;;;;;;2.33;1.80;;;;;;;;;;10366817;28;20086;-73
2023/11/30 01:58:01;;;;;;;2.17;1.80;;;;;;;;;;10381191;28;20052;-73
2023/11/30 02:03:05;;;;;;;2.45;2.00;;;;;;;;;;10346127;28;20161;-73
2023/11/30 02:08:09;;;;;;;2.45;1.85;;;;;;;;;;10364362;28;20063;-73
2023/11/30 02:13:14;;;;;;;1.95;1.67;;;;;;;;;;10361134;28;20057;-73
2023/11/30 02:18:17;;;;;;;2.25;1.90;;;;;;;;;;10342960;28;20065;-73
2023/11/30 02:23:22;;;;;;;2.35;1.88;;;;;;;;;;10360125;28;20522;-73
2023/11/30 02:28:25;;;;;;;2.28;1.95;;;;;;;;;;10344406;28;20387;-73
2023/11/30 02:33:28;;;;;;;3.22;2.08;;;;;;;;;;10368343;28;20066;-73
2023/11/30 02:38:33;;;;;;;2.00;1.80;;;;;;;;;;10365066;28;20056;-73
2023/11/30 02:43:36;;;;;;;2.53;2.30;;;;;;;;;;10378771;28;20054;-73
2023/11/30 02:48:39;;;;;;;2.55;2.10;;;;;;;;;;10380927;28;20058;-73
2023/11/30 02:53:44;;;;;;;3.13;2.13;;;;;;;;;;10363277;28;20329;-73
2023/11/30 02:58:47;;;;;;;3.00;2.30;;;;;;;;;;10373970;28;20477;-73
2023/11/30 03:03:50;;;;;;;2.45;1.90;;;;;;;;;;10374417;28;20423;-74
2023/11/30 03:08:55;;;;;;;2.10;1.90;;;;;;;;;;10339814;28;20606;-73
2023/11/30 03:13:58;;;;;;;2.92;1.65;;;;;;;;;;10363177;28;20133;-73
2023/11/30 03:19:01;;;;;;;2.30;2.10;;;;;;;;;;10337765;28;20042;-73
2023/11/30 03:24:09;;;;;;;2.35;2.00;;;;;;;;;;10362020;28;20054;-73
2023/11/30 03:29:12;;;;;;;2.83;2.10;;;;;;;;;;10368744;28;20129;-73
2023/11/30 03:34:16;;;;;;;2.30;1.92;;;;;;;;;;10368947;28;20046;-74
2023/11/30 03:39:20;;;;;;;2.10;1.90;;;;;;;;;;10366038;28;20062;-74
2023/11/30 03:44:23;;;;;;;2.35;2.15;;;;;;;;;;10362105;28;20122;-74
2023/11/30 03:49:27;;;;;;;2.28;1.90;;;;;;;;;;10350219;28;20084;-73
2023/11/30 03:54:31;;;;;;;2.05;1.73;;;;;;;;;;10348672;28;20054;-74
2023/11/30 03:59:35;;;;;;;2.35;2.00;;;;;;;;;;10349247;28;20050;-74
2023/11/30 04:04:38;;;;;;;2.25;1.85;;;;;;;;;;10355237;28;20475;-73
2023/11/30 04:09:45;;;;;;;7.30;5.03;;;;;;;;;;10362595;28;20046;-74
2023/11/30 04:14:49;;;;;;;5.05;3.35;;;;;;;;;;10363766;28;20052;-74
2023/11/30 04:19:52;;;;;;;4.07;3.25;;;;;;;;;;10351545;28;20049;-73
2023/11/30 04:24:56;;;;;;;3.20;2.55;;;;;;;;;;10382086;28;20064;-73
2023/11/30 04:30:00;;;;;;;2.22;2.03;;;;;;;;;;10401165;28;20042;-74
2023/11/30 04:35:04;;;;;;;2.85;2.17;;;;;;;;;;10472224;28;20055;-74
2023/11/30 04:40:09;;;;;;;2.95;2.08;;;;;;;;;;10474335;28;20040;-73
2023/11/30 04:45:14;;;;;;;2.22;1.80;;;;;;;;;;10421528;28;20063;-73
2023/11/30 04:50:18;;;;;;;2.22;1.83;;;;;;;;;;10401743;28;20092;-74
2023/11/30 04:55:23;;;;;;;2.83;2.20;;;;;;;;;;10472056;28;20056;-74
2023/11/30 05:00:26;;;;;;;2.63;2.35;;;;;;;;;;10447656;28;20056;-73
2023/11/30 05:05:29;;;;;;;3.08;2.22;;;;;;;;;;10472385;28;20056;-74
2023/11/30 05:10:33;;;;;;;1.90;1.70;;;;;;;;;;10469762;28;20094;-74
2023/11/30 05:15:38;;;;;;;2.85;2.10;;;;;;;;;;10449742;28;20579;-74
2023/11/30 05:20:42;;;;;;;2.83;2.13;;;;;;;;;;10393415;28;20078;-73
2023/11/30 05:25:46;;;;;;;5.78;2.17;;;;;;;;;;10362704;28;20503;-74
2023/11/30 05:30:50;;;;;;;3.13;2.70;;;;;;;;;;10460160;28;20554;-74
2023/11/30 05:35:53;;;;;;;3.25;2.47;;;;;;;;;;10378004;28;20085;-74
2023/11/30 05:40:57;;;;;;;3.15;2.35;;;;;;;;;;10391584;28;20050;-73
2023/11/30 05:46:01;;;;;;;3.53;2.58;;;;;;;;;;10371696;28;20138;-73
2023/11/30 05:51:04;;;;;;;3.35;2.80;;;;;;;;;;10412112;28;20061;-74
2023/11/30 05:56:09;;;;;;;3.63;2.67;;;;;;;;;;10404761;28;20135;-73
2023/11/30 06:01:13;;;;;;;5.10;3.50;;;;;;;;;;10369809;28;20564;-74
2023/11/30 06:06:16;;;;;;;3.70;2.58;;;;;;;;;;10477842;28;20055;-73
2023/11/30 06:11:20;;;;;;;3.80;2.92;;;;;;;;;;10452117;28;20056;-74
2023/11/30 06:16:24;;;;;;;3.70;2.70;;;;;;;;;;10449989;28;20154;-73
2023/11/30 06:21:27;;;;;;;4.65;3.08;;;;;;;;;;10451650;28;20642;-73
2023/11/30 06:26:31;;;;;;;5.55;3.75;;;;;;;;;;10435050;28;20058;-73
2023/11/30 06:31:35;;;;;;;4.93;3.60;;;;;;;;;;10429143;28;20761;-73
2023/11/30 06:36:38;;;;;;;5.80;3.97;;;;;;;;;;10453228;28;20050;-74
2023/11/30 06:41:43;;;;;;;5.85;4.05;;;;;;;;;;10436446;28;20046;-74
2023/11/30 06:46:46;;;;;;;12.13;6.53;;;;;;;;;;10458198;28;20061;-74
2023/11/30 06:51:49;;;;;;;11.02;6.97;;;;;;;;;;10463907;28;20079;-74
2023/11/30 06:56:54;;;;;;;9.50;6.05;;;;;;;;;;10457881;28;20574;-74
2023/11/30 07:07:28;;;;;;;11.98;7.20;;;;;;;;;;10764226;22;20056;-84
2023/11/30 07:12:34;;;;;;;12.38;7.63;;;;;;;;;;10447319;28;20105;-83
2023/11/30 07:17:37;;;;;;;10.77;6.88;;;;;;;;;;10375155;28;20050;-85
2023/11/30 07:22:44;;;;;;;13.10;8.30;;;;;;;;;;10359604;28;20047;-85
2023/11/30 07:27:49;;;;;;;;;;;;;;;;;;10340185;28;20599;-85
2023/11/30 07:32:54;;;;;;;10.73;7.10;;;;;;;;;;10336895;28;19972;-85
2023/11/30 07:37:57;;;;;;;10.63;6.60;;;;;;;;;;10364595;28;20184;-84
2023/11/30 07:43:02;;;;;;;9.60;6.55;;;;;;;;;;10444009;28;20079;-85
2023/11/30 07:48:05;;;;;;;9.10;5.88;;;;;;;;;;10408376;28;20538;-84
2023/11/30 07:53:09;;;;;;;9.95;6.00;;;;;;;;;;10436897;28;20046;-84
2023/11/30 07:58:14;;;;;;;8.73;5.75;;;;;;;;;;10341331;28;20058;-85
2023/11/30 08:03:20;;;;;;;7.90;5.35;;;;;;;;;;10444703;28;20074;-85
2023/11/30 08:08:23;;;;;;;8.85;5.10;;;;;;;;;;10388916;28;20504;-86
2023/11/30 08:13:29;;;;;;;9.15;5.78;;;;;;;;;;10370872;28;20085;-85
2023/11/30 08:18:35;;;;;;;9.27;6.18;;;;;;;;;;10429388;28;20057;-86
2023/11/30 08:23:39;;;;;;;8.88;5.57;;;;;;;;;;10364846;28;20505;-86
2023/11/30 08:28:45;;;;;;;8.43;4.93;;;;;;;;;;10321996;28;20050;-86
2023/11/30 08:33:48;;;;;;;;;;;;;;;;;;10352216;28;20051;-85
2023/11/30 08:38:55;;;;;;;6.88;4.65;;;;;;;;;;10382814;28;19930;-87
2023/11/30 08:44:00;;;;;;;10.55;7.20;;;;;;;;;;10444462;28;20500;-86
2023/11/30 08:49:06;;;;;;;8.65;5.85;;;;;;;;;;10379631;28;20081;-85
2023/11/30 08:54:10;;;;;;;8.48;5.40;;;;;;;;;;10403484;28;20486;-86
2023/11/30 08:59:14;;;;;;;8.43;5.50;;;;;;;;;;10393609;28;20127;-86
2023/11/30 09:04:18;;;;;;;10.18;6.40;;;;;;;;;;10393167;28;20070;-85
2023/11/30 09:09:21;;;;;;;8.82;6.07;;;;;;;;;;10458107;28;20060;-84
2023/11/30 09:14:27;;;;;;;9.65;5.95;;;;;;;;;;10491293;28;20082;-84
2023/11/30 09:19:36;;;;;;;8.38;5.78;;;;;;;;;;10460610;28;20071;-85
2023/11/30 09:24:40;;;;;;;9.95;6.32;;;;;;;;;;10431350;28;20618;-84
2023/11/30 09:29:48;;;;;;;9.60;6.20;;;;;;;;;;10422036;28;20513;-85
2023/11/30 09:34:53;;;;;;;9.13;5.50;;;;;;;;;;10417458;28;20117;-85
2023/11/30 09:39:56;;;;;;;8.60;4.93;;;;;;;;;;10411901;28;20052;-85
2023/11/30 09:45:05;;;;;;;8.27;5.25;;;;;;;;;;10372828;28;20051;-84
2023/11/30 09:50:09;;;;;;;6.57;4.65;;;;;;;;;;10335875;28;20066;-85
2023/11/30 09:55:25;;;;;;;9.43;6.28;;;;;;;;;;10376770;28;20043;-85
2023/11/30 10:00:30;;;;;;;9.93;6.50;;;;;;;;;;10376658;28;20131;-85
2023/11/30 10:05:33;;;;;;;9.25;5.70;;;;;;;;;;10411233;28;20246;-84
2023/11/30 10:10:39;;;;;;;17.55;10.95;;;;;;;;;;10456990;28;20159;-85
2023/11/30 10:15:45;;;;;;;10.57;7.35;;;;;;;;;;10456354;28;20135;-85
2023/11/30 10:20:48;;;;;;;;;;;;;;;;;;10377548;28;20050;-85
2023/11/30 10:25:55;;;;;;;7.72;4.80;;;;;;;;;;10362228;28;19951;-84
2023/11/30 10:31:02;;;;;;;6.47;4.38;;;;;;;;;;10370110;28;20040;-84
2023/11/30 10:36:09;;;;;;;10.27;6.38;;;;;;;;;;10402900;28;20040;-85
2023/11/30 10:41:19;;;;;;;7.05;5.10;;;;;;;;;;10486168;28;20040;-84
2023/11/30 10:46:25;;;;;;;8.98;5.03;;;;;;;;;;10427649;28;20121;-84
2023/11/30 10:51:28;;;;;;;7.05;4.85;;;;;;;;;;10321859;28;20062;-85
2023/11/30 10:56:33;;;;;;;7.70;4.90;;;;;;;;;;10396271;28;20415;-84
2023/11/30 11:01:37;;;;;;;8.98;5.95;;;;;;;;;;10379757;28;20610;-84
2023/11/30 11:06:41;;;;;;;6.47;4.88;;;;;;;;;;10323865;28;20054;-85
2023/11/30 11:11:50;;;;;;;8.90;5.28;;;;;;;;;;10440794;28;20817;-84
2023/11/30 11:17:06;;;;;;;7.57;5.00;;;;;;;;;;10372893;28;20408;-84
2023/11/30 11:22:18;;;;;;;7.63;5.22;;;;;;;;;;10334310;28;20143;-84
2023/11/30 11:27:31;;;;;;;7.22;4.85;;;;;;;;;;10366651;28;20493;-84
2023/11/30 11:32:39;;;;;;;7.22;5.57;;;;;;;;;;10434043;28;20050;-85
2023/11/30 11:37:48;;;;;;;8.70;5.45;;;;;;;;;;10388784;28;20101;-84
2023/11/30 11:42:51;;;;;;;7.10;4.95;;;;;;;;;;10393134;28;20047;-84
2023/11/30 11:48:02;;;;;;;8.40;5.43;;;;;;;;;;10343642;28;20458;-83
2023/11/30 11:53:06;;;;;;;11.30;7.22;;;;;;;;;;10340506;28;20496;-84
2023/11/30 11:58:13;;;;;;;9.10;6.70;;;;;;;;;;10413194;28;20050;-85
2023/11/30 12:03:18;;;;;;;9.25;6.43;;;;;;;;;;10348969;28;20533;-85
2023/11/30 12:08:30;;;;;;;8.98;6.13;;;;;;;;;;10377261;28;20044;-84
2023/11/30 12:13:37;;;;;;;10.10;6.55;;;;;;;;;;10413819;28;20064;-85
2023/11/30 12:18:49;;;;;;;11.38;7.20;;;;;;;;;;10412638;28;20446;-85
2023/11/30 12:23:52;;;;;;;12.15;6.97;;;;;;;;;;10346648;28;20793;-85
2023/11/30 12:29:02;;;;;;;11.13;7.45;;;;;;;;;;10372289;28;20505;-85
2023/11/30 12:34:06;;;;;;;11.93;7.13;;;;;;;;;;10376579;28;20054;-85
2023/11/30 12:45:10;;;;;;;16.63;8.85;;;;;;;;;;10360204;28;20055;-85
2023/11/30 12:50:15;;;;;;;13.75;8.52;;;;;;;;;;10353964;28;20138;-85
2023/11/30 12:55:25;;;;;;;10.40;6.97;;;;;;;;;;10382604;28;20043;-85
2023/11/30 13:00:28;;;;;;;9.30;6.30;;;;;;;;;;10365686;28;20482;-85
2023/11/30 13:05:39;;;;;;;8.70;6.20;;;;;;;;;;10382137;28;20115;-85
2023/11/30 13:10:42;;;;;;;9.43;5.82;;;;;;;;;;10381336;28;20114;-86
2023/11/30 13:15:48;;;;;;;11.23;6.38;;;;;;;;;;10373400;28;20648;-85
2023/11/30 13:20:53;;;;;;;9.23;6.03;;;;;;;;;;10437805;28;20044;-85
2023/11/30 13:25:57;;;;;;;9.75;6.32;;;;;;;;;;10475987;28;20489;-85
2023/11/30 13:31:00;;;;;;;10.43;6.85;;;;;;;;;;10411297;28;20047;-85
2023/11/30 13:36:16;;;;;;;9.55;6.60;;;;;;;;;;10454718;28;20055;-84
2023/11/30 13:48:13;;;;;;;17.80;10.38;;;;;;;;;;10391157;28;20052;-84
2023/11/30 13:53:21;;;;;;;23.15;12.75;;;;;;;;;;10331762;28;20085;-86
2023/11/30 13:58:24;;;;;;;16.75;10.02;;;;;;;;;;10415946;28;20078;-85
2023/11/30 14:03:28;;;;;;;19.05;12.23;;;;;;;;;;10428536;28;20059;-86
2023/11/30 14:08:34;;;;;;;14.23;8.80;;;;;;;;;;10434230;28;20052;-85
2023/11/30 14:20:06;;;;;;;16.88;9.93;;;;;;;;;;10429288;28;20142;-87
2023/11/30 14:25:12;;;;;;;14.80;7.97;;;;;;;;;;10406390;28;20071;-87
2023/11/30 14:30:15;;;;;;;;;;;;;;;;;;10406756;28;20055;-87
2023/11/30 14:35:19;;;;;;;16.58;9.52;;;;;;;;;;10406481;28;19935;-86
2023/11/30 14:40:23;;;;;;;12.15;7.40;;;;;;;;;;10383576;28;20051;-86
2023/11/30 14:45:30;;;;;;;10.10;6.40;;;;;;;;;;10456744;28;20049;-86
2023/11/30 14:50:35;;;;;;;10.18;6.50;;;;;;;;;;10385971;28;20058;-86
2023/11/30 14:55:39;;;;;;;10.50;6.25;;;;;;;;;;10428697;28;20068;-87
2023/11/30 15:00:45;;;;;;;11.40;7.28;;;;;;;;;;10421002;28;20090;-85
2023/11/30 15:05:48;;;;;;;11.57;7.33;;;;;;;;;;10423148;28;20807;-86
2023/11/30 15:11:01;;;;;;;8.93;6.00;;;;;;;;;;10474805;28;20050;-85
2023/11/30 15:16:04;;;;;;;9.45;6.05;;;;;;;;;;10468042;28;20081;-86
2023/11/30 15:21:08;;;;;;;9.68;6.63;;;;;;;;;;10440266;28;20488;-85
2023/11/30 15:26:15;;;;;;;11.18;6.55;;;;;;;;;;10402376;28;20048;-85
2023/11/30 15:31:22;;;;;;;12.55;7.63;;;;;;;;;;10391081;28;20117;-85
2023/11/30 15:36:25;;;;;;;12.57;7.35;;;;;;;;;;10430512;28;20052;-86
2023/11/30 15:41:30;;;;;;;13.20;7.57;;;;;;;;;;10431368;28;20052;-84
2023/11/30 15:46:34;;;;;;;11.10;6.57;;;;;;;;;;10438880;28;20070;-85
2023/11/30 15:51:39;;;;;;;12.00;5.97;;;;;;;;;;10373300;28;20127;-85
2023/11/30 15:56:44;;;;;;;10.60;6.60;;;;;;;;;;10397306;28;20072;-85
2023/11/30 16:01:48;;;;;;;10.10;6.25;;;;;;;;;;10368370;28;20097;-87
2023/11/30 16:06:51;;;;;;;9.35;5.95;;;;;;;;;;10411172;28;20040;-85
2023/11/30 16:11:56;;;;;;;8.43;5.47;;;;;;;;;;10380684;28;20077;-86
2023/11/30 16:16:59;;;;;;;8.20;5.30;;;;;;;;;;10398153;28;20118;-86
2023/11/30 16:22:03;;;;;;;7.78;4.93;;;;;;;;;;10355159;28;20054;-84
2023/11/30 16:27:08;;;;;;;7.88;5.35;;;;;;;;;;10433970;28;20053;-85
2023/11/30 16:32:11;;;;;;;10.48;6.25;;;;;;;;;;10458957;28;20050;-85
2023/11/30 16:37:14;;;;;;;8.52;5.72;;;;;;;;;;10423016;28;20058;-86
2023/11/30 16:42:19;;;;;;;10.20;5.93;;;;;;;;;;10332185;28;20048;-82
2023/11/30 16:47:22;;;;;;;9.60;6.20;;;;;;;;;;10367390;28;20085;-83
2023/11/30 16:52:26;;;;;;;7.20;4.95;;;;;;;;;;10391545;28;20076;-83
2023/11/30 16:57:33;;;;;;;12.45;7.47;;;;;;;;;;10407139;28;20092;-83
2023/11/30 17:02:36;;;;;;;9.90;6.40;;;;;;;;;;10403501;28;20136;-83
2023/11/30 17:07:41;;;;;;;12.27;6.95;;;;;;;;;;10443656;28;20095;-83
2023/11/30 17:12:46;;;;;;;12.98;7.47;;;;;;;;;;10422106;28;20420;-83
2023/11/30 17:17:49;;;;;;;9.77;6.53;;;;;;;;;;10412879;28;20046;-83
2023/11/30 17:22:53;;;;;;;12.73;7.55;;;;;;;;;;10433660;28;20501;-83
2023/11/30 17:27:58;;;;;;;11.75;7.45;;;;;;;;;;10456794;28;20078;-82
2023/11/30 17:33:02;;;;;;;22.35;12.90;;;;;;;;;;10388114;28;20133;-83
2023/11/30 17:38:05;;;;;;;22.85;14.63;;;;;;;;;;10434382;28;20050;-83
2023/11/30 17:43:10;;;;;;;20.10;12.82;;;;;;;;;;10451632;28;20059;-82
2023/11/30 17:48:13;;;;;;;16.67;11.07;;;;;;;;;;10393626;28;20054;-83
2023/11/30 17:53:17;;;;;;;13.70;8.15;;;;;;;;;;10446381;28;20040;-83
2023/11/30 17:58:22;;;;;;;12.88;7.13;;;;;;;;;;10442539;28;20131;-83
2023/11/30 18:03:25;;;;;;;18.05;9.55;;;;;;;;;;10447250;28;20056;-83
2023/11/30 18:08:29;;;;;;;14.88;8.57;;;;;;;;;;10402840;28;20053;-83
2023/11/30 18:13:34;;;;;;;12.35;7.15;;;;;;;;;;10418999;28;20079;-83
2023/11/30 18:18:38;;;;;;;13.45;7.38;;;;;;;;;;10394556;28;20047;-83
2023/11/30 18:23:41;;;;;;;13.15;7.32;;;;;;;;;;10399946;28;20452;-83
2023/11/30 18:28:46;;;;;;;11.50;6.40;;;;;;;;;;10445074;28;20040;-83
2023/11/30 18:33:49;;;;;;;12.70;7.07;;;;;;;;;;10421042;28;20043;-83
2023/11/30 18:38:53;;;;;;;17.92;9.18;;;;;;;;;;10363776;28;20061;-82
2023/11/30 18:43:58;;;;;;;18.23;9.63;;;;;;;;;;10393517;28;20074;-83
2023/11/30 18:49:01;;;;;;;18.73;8.90;;;;;;;;;;10454120;28;20108;-82
2023/11/30 18:54:06;;;;;;;15.75;8.40;;;;;;;;;;10434634;28;20088;-83
2023/11/30 18:59:10;;;;;;;16.92;8.00;;;;;;;;;;10472612;28;20059;-82
2023/11/30 19:04:15;;;;;;;13.88;6.95;;;;;;;;;;10392975;28;20046;-82
2023/11/30 19:09:18;;;;;;;14.77;7.40;;;;;;;;;;10410074;28;20044;-83
2023/11/30 19:14:23;;;;;;;13.73;7.45;;;;;;;;;;10439982;28;20044;-83
2023/11/30 19:19:26;;;;;;;17.15;8.30;;;;;;;;;;10384461;28;20067;-82
2023/11/30 19:24:29;;;;;;;18.50;8.90;;;;;;;;;;10407202;28;20098;-83
2023/11/30 19:29:34;;;;;;;21.58;10.63;;;;;;;;;;10455004;28;20055;-83
2023/11/30 19:34:38;;;;;;;16.98;8.25;;;;;;;;;;10433845;28;20050;-83
2023/11/30 19:39:41;;;;;;;17.45;8.00;;;;;;;;;;10411577;28;20142;-82
2023/11/30 19:44:46;;;;;;;16.73;8.10;;;;;;;;;;10361766;28;20070;-82
2023/11/30 19:49:49;;;;;;;15.73;7.68;;;;;;;;;;10403906;28;20074;-82
2023/11/30 19:54:52;;;;;;;22.10;10.93;;;;;;;;;;10393166;28;20081;-82
2023/11/30 19:59:57;;;;;;;23.85;10.88;;;;;;;;;;10416043;28;20042;-83
2023/11/30 20:05:03;;;;;;;18.83;8.57;;;;;;;;;;10369400;28;20058;-82
2023/11/30 20:10:07;;;;;;;16.30;8.43;;;;;;;;;;10345488;28;20138;-82
2023/11/30 20:15:12;;;;;;;16.08;7.57;;;;;;;;;;10349049;28;20141;-82
2023/11/30 20:20:15;;;;;;;16.88;7.90;;;;;;;;;;10364393;28;20568;-82
2023/11/30 20:25:19;;;;;;;16.10;6.32;;;;;;;;;;10356895;28;20496;-83
2023/11/30 20:30:24;;;;;;;16.73;7.60;;;;;;;;;;10367920;28;20110;-83
2023/11/30 20:35:30;;;;;;;13.40;6.55;;;;;;;;;;10411823;28;20052;-82
2023/11/30 20:40:33;;;;;;;11.43;5.88;;;;;;;;;;10383736;28;20047;-83
2023/11/30 20:45:39;;;;;;;22.55;11.00;;;;;;;;;;10424402;28;20051;-84
2023/11/30 20:50:42;;;;;;;16.00;8.20;;;;;;;;;;10465832;28;20489;-83
2023/11/30 20:55:48;;;;;;;14.23;7.18;;;;;;;;;;10463050;28;20649;-83
2023/11/30 21:00:53;;;;;;;14.43;7.40;;;;;;;;;;10420691;28;20566;-82
2023/11/30 21:06:00;;;;;;;12.07;6.00;;;;;;;;;;10420833;28;20050;-84
2023/11/30 21:11:04;;;;;;;12.90;6.18;;;;;;;;;;10420986;28;20098;-83
2023/11/30 21:16:09;;;;;;;11.52;6.47;;;;;;;;;;10437700;28;20074;-84
2023/11/30 21:21:14;;;;;;;13.10;6.60;;;;;;;;;;10376618;28;20055;-84
2023/11/30 21:26:19;;;;;;;10.68;6.30;;;;;;;;;;10381361;28;20220;-83
2023/11/30 21:31:24;;;;;;;12.35;5.88;;;;;;;;;;10447960;28;20105;-83
2023/11/30 21:36:27;;;;;;;11.10;6.18;;;;;;;;;;10355775;28;20061;-83
2023/11/30 21:41:30;;;;;;;11.00;6.43;;;;;;;;;;10400170;28;20054;-83
2023/11/30 21:46:37;;;;;;;17.10;6.80;;;;;;;;;;10375160;28;20089;-82
2023/11/30 21:51:41;;;;;;;11.45;6.15;;;;;;;;;;10438928;28;20051;-82
2023/11/30 21:56:44;;;;;;;12.63;6.78;;;;;;;;;;10364591;22;20546;-75
2023/11/30 22:01:49;;;;;;;12.50;6.63;;;;;;;;;;10269987;28;20050;-74
2023/11/30 22:06:53;;;;;;;10.45;5.85;;;;;;;;;;10373692;28;20110;-75
2023/11/30 22:11:56;;;;;;;7.85;4.57;;;;;;;;;;10392899;28;20067;-75
2023/11/30 22:17:01;;;;;;;10.90;6.13;;;;;;;;;;10412013;28;20050;-75
2023/11/30 22:22:05;;;;;;;10.52;5.82;;;;;;;;;;10418879;28;20059;-75
2023/11/30 22:27:08;;;;;;;10.02;5.57;;;;;;;;;;10434555;28;20052;-75
2023/11/30 22:32:13;;;;;;;12.27;5.43;;;;;;;;;;10459534;28;20066;-75
2023/11/30 22:37:19;;;;;;;9.93;5.53;;;;;;;;;;10468022;28;20061;-75
2023/11/30 22:42:22;;;;;;;12.50;6.55;;;;;;;;;;10444179;28;20052;-74
2023/11/30 22:47:28;;;;;;;11.07;5.75;;;;;;;;;;10443506;28;20044;-75
2023/11/30 22:52:31;;;;;;;9.70;5.22;;;;;;;;;;10485368;28;20048;-75
2023/11/30 22:57:35;;;;;;;13.55;6.28;;;;;;;;;;10472737;28;20044;-75
2023/11/30 23:02:40;;;;;;;10.82;5.78;;;;;;;;;;10465067;28;20131;-75
2023/11/30 23:07:43;;;;;;;9.52;5.05;;;;;;;;;;10484585;28;20080;-75
2023/11/30 23:12:46;;;;;;;9.77;5.63;;;;;;;;;;10407910;28;20046;-75
2023/11/30 23:17:51;;;;;;;8.90;5.00;;;;;;;;;;10408862;28;20466;-74
2023/11/30 23:22:54;;;;;;;8.05;5.45;;;;;;;;;;10417446;28;20068;-75
2023/11/30 23:27:59;;;;;;;8.57;4.88;;;;;;;;;;10437119;28;20055;-75
2023/11/30 23:33:06;;;;;;;8.85;5.25;;;;;;;;;;10429671;28;20048;-74
2023/11/30 23:38:09;;;;;;;8.15;4.70;;;;;;;;;;10480800;28;20098;-74
2023/11/30 23:43:12;;;;;;;6.82;4.65;;;;;;;;;;10405230;28;20063;-74
2023/11/30 23:48:17;;;;;;;7.55;4.78;;;;;;;;;;10456271;28;20037;-75
2023/11/30 23:53:20;;;;;;;7.63;5.05;;;;;;;;;;10428693;28;20060;-74
2023/11/30 23:58:23;;;;;;;9.23;5.57;;;;;;;;;;10416054;28;20062;-74
